Time;durP1;ratioP1;P1;durP2;ratioP2;P2;SDS_P1;SDS_P2;PMS_P1;PMS_P2;Temp;Humidity;BMP_temperature;BMP_pressure;BME280_temperature;BME280_humidity;BME280_pressure;Samples;Min_cycle;Max_cycle;Signal;HPM_P1;HPM_P2
2023/02/06 00:01:33;;;;;;;2.20;1.80;;;15.10;51.00;;;;;;5004135;28;20045;-70
2023/02/06 00:03:58;;;;;;;2.53;2.10;;;15.10;51.10;;;;;;5003962;28;20038;-70
2023/02/06 00:06:24;;;;;;;1.80;1.45;;;15.20;51.00;;;;;;5003950;28;20037;-70
2023/02/06 00:08:50;;;;;;;2.13;1.92;;;15.20;51.10;;;;;;5003971;28;20052;-70
2023/02/06 00:11:16;;;;;;;2.13;1.52;;;15.30;51.20;;;;;;5002730;28;20045;-71
2023/02/06 00:13:44;;;;;;;2.35;1.83;;;15.40;51.20;;;;;;5003819;28;20242;-71
2023/02/06 00:16:21;;;;;;;2.63;1.73;;;15.50;51.00;;;;;;5003804;28;20022;-70
2023/02/06 00:18:51;;;;;;;2.50;2.20;;;15.60;50.90;;;;;;5003797;28;20030;-72
2023/02/06 00:21:20;;;;;;;2.20;1.50;;;15.60;50.60;;;;;;5003748;28;20030;-71
2023/02/06 00:23:47;;;;;;;2.08;1.70;;;15.60;50.40;;;;;;5003727;28;20019;-70
2023/02/06 00:26:13;;;;;;;2.63;1.80;;;15.60;50.30;;;;;;5003815;28;20027;-71
2023/02/06 00:28:39;;;;;;;2.28;1.50;;;15.70;50.10;;;;;;5003891;28;20344;-71
2023/02/06 00:31:07;;;;;;;2.78;1.90;;;15.80;50.00;;;;;;5003787;28;20026;-71
2023/02/06 00:33:33;;;;;;;1.67;1.58;;;15.80;49.90;;;;;;5003598;28;20034;-71
2023/02/06 00:35:59;;;;;;;2.13;1.80;;;15.90;49.80;;;;;;5003425;28;20080;-71
2023/02/06 00:38:25;;;;;;;2.72;1.83;;;15.90;49.60;;;;;;5003584;28;20049;-70
2023/02/06 00:40:51;;;;;;;2.85;1.80;;;15.90;49.30;;;;;;5003646;28;20302;-70
2023/02/06 00:43:16;;;;;;;2.60;1.80;;;15.90;49.30;;;;;;5002911;28;20014;-69
2023/02/06 00:45:42;;;;;;;2.67;1.90;;;15.90;49.20;;;;;;5003402;28;20238;-71
2023/02/06 00:48:09;;;;;;;2.78;1.65;;;15.80;49.50;;;;;;5003332;28;20030;-72
2023/02/06 00:50:35;;;;;;;2.30;1.38;;;15.60;49.50;;;;;;5003204;28;20026;-72
2023/02/06 00:53:01;;;;;;;2.40;1.60;;;15.60;49.80;;;;;;5003168;28;20026;-70
2023/02/06 00:55:27;;;;;;;2.83;1.70;;;15.50;49.80;;;;;;5003162;28;20022;-71
2023/02/06 00:57:52;;;;;;;3.22;2.17;;;15.40;49.80;;;;;;5003116;28;20030;-69
2023/02/06 01:00:18;;;;;;;2.65;2.00;;;15.30;50.00;;;;;;5003087;28;20050;-70
2023/02/06 01:02:44;;;;;;;2.95;1.85;;;15.30;50.30;;;;;;5002913;28;20311;-71
2023/02/06 01:05:10;;;;;;;2.13;1.65;;;15.20;50.20;;;;;;5002929;28;20062;-71
2023/02/06 01:07:38;;;;;;;2.78;1.67;;;15.20;50.60;;;;;;5003024;28;20105;-70
2023/02/06 01:10:05;;;;;;;2.60;1.92;;;15.10;50.70;;;;;;5002957;28;20338;-71
2023/02/06 01:12:33;;;;;;;2.35;1.77;;;15.10;50.70;;;;;;5002915;28;20026;-70
2023/02/06 01:15:00;;;;;;;2.35;1.85;;;15.10;50.80;;;;;;5002850;28;20034;-70
2023/02/06 01:17:27;;;;;;;2.58;1.73;;;15.10;50.90;;;;;;5002828;28;20073;-70
2023/02/06 01:19:53;;;;;;;3.63;2.03;;;15.10;50.90;;;;;;5002775;28;20022;-71
2023/02/06 01:22:18;;;;;;;1.92;1.60;;;15.20;51.00;;;;;;5001420;28;20314;-71
2023/02/06 01:24:44;;;;;;;2.53;1.88;;;15.30;51.00;;;;;;5002755;28;20027;-71
2023/02/06 01:27:10;;;;;;;1.77;1.27;;;15.30;50.80;;;;;;5002695;28;20029;-71
2023/02/06 01:29:36;;;;;;;2.58;1.80;;;15.40;50.80;;;;;;5002657;28;20030;-71
2023/02/06 01:32:02;;;;;;;2.60;1.83;;;15.50;50.60;;;;;;5002495;28;20022;-70
2023/02/06 01:34:27;;;;;;;2.33;1.90;;;15.60;50.40;;;;;;5002437;28;20069;-70
2023/02/06 01:36:53;;;;;;;2.28;2.05;;;15.60;50.00;;;;;;5002499;28;20238;-71
2023/02/06 01:39:19;;;;;;;3.70;2.55;;;15.60;49.70;;;;;;5002469;28;20033;-70
2023/02/06 01:41:45;;;;;;;4.28;2.10;;;15.70;49.70;;;;;;5002405;28;20073;-70
2023/02/06 01:44:21;;;;;;;3.55;2.22;;;15.70;49.50;;;;;;5002323;28;20033;-71
2023/02/06 01:46:51;;;;;;;4.80;2.90;;;15.80;49.40;;;;;;5002251;28;20090;-71
2023/02/06 01:49:27;;;;;;;4.05;2.20;;;15.80;49.20;;;;;;5002205;28;20133;-71
2023/02/06 01:51:57;;;;;;;4.03;2.72;;;15.90;49.20;;;;;;5002166;28;20023;-70
2023/02/06 01:54:23;;;;;;;4.10;3.00;;;15.90;49.00;;;;;;5001148;28;20026;-69
2023/02/06 01:56:55;;;;;;;4.22;2.80;;;15.80;48.70;;;;;;5002051;28;20266;-70
2023/02/06 01:59:21;;;;;;;3.92;2.92;;;15.80;48.90;;;;;;5001996;28;20234;-71
2023/02/06 02:01:47;;;;;;;4.72;2.97;;;15.60;49.00;;;;;;5001980;28;20026;-71
2023/02/06 02:04:20;;;;;;;3.67;2.58;;;15.50;49.20;;;;;;5000413;28;20046;-71
2023/02/06 02:07:01;;;;;;;5.35;3.03;;;15.40;49.40;;;;;;5001815;28;20038;-70
2023/02/06 02:09:28;;;;;;;4.85;3.20;;;15.30;49.50;;;;;;5001744;28;20026;-73
2023/02/06 02:11:54;;;;;;;4.32;3.00;;;15.30;49.50;;;;;;5001747;28;20484;-71
2023/02/06 02:14:20;;;;;;;4.35;2.67;;;15.20;49.80;;;;;;5001681;28;20042;-70
2023/02/06 02:17:05;;;;;;;5.25;2.92;;;15.20;49.80;;;;;;5001634;28;20041;-70
2023/02/06 02:19:49;;;;;;;3.05;2.15;;;15.10;50.20;;;;;;5001546;28;20086;-71
2023/02/06 02:22:18;;;;;;;4.60;2.60;;;15.10;50.30;;;;;;5001489;28;20026;-70
2023/02/06 02:24:55;;;;;;;4.10;2.35;;;15.10;50.30;;;;;;5001370;28;20037;-71
2023/02/06 02:28:02;;;;;;;4.57;2.63;;;15.00;50.40;;;;;;5001435;28;20041;-71
2023/02/06 02:31:06;;;;;;;4.57;2.95;;;15.10;50.60;;;;;;5000997;28;20038;-69
2023/02/06 02:33:53;;;;;;;4.70;2.78;;;15.10;50.50;;;;;;5001300;28;20203;-71
2023/02/06 02:36:42;;;;;;;3.50;2.33;;;15.20;50.80;;;;;;5001243;28;20126;-70
2023/02/06 02:39:33;;;;;;;3.33;1.95;;;15.30;50.80;;;;;;4990988;28;20042;-69
2023/02/06 02:42:14;;;;;;;2.83;1.83;;;15.40;51.10;;;;;;5001199;28;20014;-71
2023/02/06 02:45:10;;;;;;;3.63;2.30;;;15.50;50.30;;;;;;5001180;28;20018;-71
2023/02/06 02:47:57;;;;;;;2.42;1.98;;;15.50;50.10;;;;;;5001175;28;20067;-70
2023/02/06 02:50:23;;;;;;;3.67;2.15;;;15.50;49.80;;;;;;5001094;28;20097;-70
2023/02/06 02:52:49;;;;;;;3.05;2.17;;;15.50;49.80;;;;;;5001034;28;20033;-71
2023/02/06 02:55:21;;;;;;;2.78;2.22;;;15.60;49.60;;;;;;5001000;28;20046;-71
2023/02/06 02:57:52;;;;;;;3.30;2.28;;;15.60;49.40;;;;;;5001065;28;20018;-72
2023/02/06 03:00:20;;;;;;;3.05;2.13;;;15.70;49.30;;;;;;5001027;28;20226;-72
2023/02/06 03:02:48;;;;;;;3.70;2.05;;;15.70;49.30;;;;;;5000917;28;20100;-71
2023/02/06 03:05:19;;;;;;;2.13;1.90;;;15.60;49.30;;;;;;5000639;28;20113;-71
2023/02/06 03:08:03;;;;;;;2.50;2.00;;;15.50;49.20;;;;;;5000962;28;20034;-70
2023/02/06 03:10:56;;;;;;;3.40;2.25;;;15.40;49.50;;;;;;5000978;28;20022;-70
2023/02/06 03:13:31;;;;;;;8.82;2.17;;;15.30;49.60;;;;;;5001097;28;20022;-71
2023/02/06 03:16:15;;;;;;;2.67;2.03;;;15.20;49.80;;;;;;5000894;28;20050;-71
2023/02/06 03:19:04;;;;;;;2.70;2.17;;;15.20;49.90;;;;;;5000841;28;20053;-73
2023/02/06 03:21:33;;;;;;;3.17;2.10;;;15.10;50.20;;;;;;5000850;28;20026;-71
2023/02/06 03:24:03;;;;;;;2.85;2.00;;;15.00;50.30;;;;;;5000776;28;20018;-70
2023/02/06 03:26:30;;;;;;;3.40;2.42;;;15.00;50.40;;;;;;5000790;28;20018;-69
2023/02/06 03:29:01;;;;;;;3.03;2.22;;;15.00;50.50;;;;;;5000824;28;20408;-69
2023/02/06 03:31:52;;;;;;;4.07;2.45;;;15.00;50.30;;;;;;5000742;28;20034;-69
2023/02/06 03:34:28;;;;;;;3.28;2.45;;;14.90;50.50;;;;;;5000618;28;20368;-72
2023/02/06 03:36:54;;;;;;;3.20;2.13;;;14.90;50.50;;;;;;5000676;28;20054;-71
2023/02/06 03:39:21;;;;;;;3.80;2.33;;;15.10;50.70;;;;;;5000842;28;20037;-70
2023/02/06 03:41:48;;;;;;;2.75;1.98;;;15.10;50.80;;;;;;5000734;28;20018;-71
2023/02/06 03:44:26;;;;;;;2.50;2.03;;;15.20;50.80;;;;;;5000596;28;20014;-70
2023/02/06 03:46:54;;;;;;;3.00;2.10;;;15.30;50.60;;;;;;5000633;28;20072;-71
2023/02/06 03:49:23;;;;;;;3.50;2.47;;;15.30;50.20;;;;;;5000571;28;20030;-70
2023/02/06 03:51:56;;;;;;;3.30;2.25;;;15.50;50.20;;;;;;5000439;28;20018;-70
2023/02/06 03:54:25;;;;;;;3.42;2.05;;;15.40;49.80;;;;;;5000494;28;20034;-71
2023/02/06 03:56:54;;;;;;;2.85;2.45;;;15.50;49.70;;;;;;5000651;28;20025;-71
2023/02/06 03:59:20;;;;;;;;;;;15.50;49.60;;;;;;5001093;28;20029;-71
2023/02/06 04:01:53;;;;;;;2.95;2.20;;;15.50;49.50;;;;;;5000594;28;19901;-70
2023/02/06 04:04:27;;;;;;;3.63;2.53;;;15.60;49.20;;;;;;5000379;28;20046;-72
2023/02/06 04:06:56;;;;;;;2.70;2.05;;;15.60;49.00;;;;;;5000496;28;20062;-72
2023/02/06 04:09:22;;;;;;;3.42;2.47;;;15.60;49.00;;;;;;5000493;28;20030;-70
2023/02/06 04:11:48;;;;;;;3.33;2.05;;;15.50;49.10;;;;;;5000523;28;20549;-70
2023/02/06 04:14:13;;;;;;;3.25;2.40;;;15.40;49.20;;;;;;5000504;28;20026;-70
2023/02/06 04:16:39;;;;;;;3.85;2.63;;;15.30;49.30;;;;;;5000450;28;20022;-70
2023/02/06 04:19:05;;;;;;;4.15;2.47;;;15.20;49.40;;;;;;5003851;28;20018;-69
2023/02/06 04:21:31;;;;;;;3.58;2.20;;;15.20;49.70;;;;;;5003916;28;20030;-73
2023/02/06 04:23:56;;;;;;;2.88;2.30;;;15.10;49.90;;;;;;5003951;28;20026;-71
2023/02/06 04:26:22;;;;;;;3.22;2.30;;;15.10;49.80;;;;;;5003802;28;20034;-70
2023/02/06 04:28:48;;;;;;;3.28;2.30;;;15.00;50.10;;;;;;5003687;28;20349;-71
2023/02/06 04:31:14;;;;;;;3.42;2.08;;;15.00;50.40;;;;;;5002317;28;20053;-70
2023/02/06 04:33:39;;;;;;;2.78;2.17;;;14.90;50.60;;;;;;5003607;28;20053;-70
2023/02/06 04:36:06;;;;;;;2.70;2.25;;;14.90;50.60;;;;;;5003411;28;20018;-70
2023/02/06 04:38:32;;;;;;;2.85;2.30;;;14.80;50.60;;;;;;5003473;28;20018;-70
2023/02/06 04:41:05;;;;;;;3.53;1.95;;;14.90;50.50;;;;;;5003423;28;20018;-70
2023/02/06 04:43:32;;;;;;;2.92;1.90;;;14.90;50.60;;;;;;5003472;28;20032;-69
2023/02/06 04:45:58;;;;;;;2.97;1.73;;;15.00;50.80;;;;;;5003338;28;20034;-71
2023/02/06 04:48:24;;;;;;;3.38;2.40;;;15.00;50.70;;;;;;5001903;28;20030;-70
2023/02/06 04:50:51;;;;;;;3.08;2.00;;;15.10;50.60;;;;;;5003277;28;20026;-69
2023/02/06 04:53:17;;;;;;;2.50;2.00;;;15.20;50.50;;;;;;5003223;28;20088;-70
2023/02/06 04:55:43;;;;;;;4.75;2.25;;;15.30;50.30;;;;;;5003037;28;20030;-70
2023/02/06 04:58:10;;;;;;;3.70;2.60;;;15.30;50.00;;;;;;5003143;28;20030;-70
2023/02/06 05:00:36;;;;;;;3.13;2.28;;;15.30;50.00;;;;;;5003066;28;20014;-71
2023/02/06 05:03:02;;;;;;;3.83;2.72;;;15.30;49.70;;;;;;5002889;28;20057;-71
2023/02/06 05:05:28;;;;;;;3.13;2.00;;;15.40;49.80;;;;;;5003000;28;20264;-72
2023/02/06 05:07:54;;;;;;;3.13;2.13;;;15.40;49.60;;;;;;5002986;28;20030;-71
2023/02/06 05:10:20;;;;;;;3.55;2.25;;;15.50;49.40;;;;;;5002984;28;20330;-71
2023/02/06 05:12:46;;;;;;;3.38;2.25;;;15.50;49.30;;;;;;5002821;28;20037;-70
2023/02/06 05:15:13;;;;;;;2.53;2.20;;;15.50;49.20;;;;;;5002739;28;20030;-71
2023/02/06 05:17:38;;;;;;;2.78;1.98;;;15.60;48.80;;;;;;5002824;28;20033;-70
2023/02/06 05:20:05;;;;;;;3.55;2.65;;;15.60;48.90;;;;;;5002708;28;20030;-71
2023/02/06 05:22:31;;;;;;;2.88;2.42;;;15.50;49.00;;;;;;5002782;28;20052;-70
2023/02/06 05:24:57;;;;;;;3.08;2.05;;;15.50;49.00;;;;;;5002700;28;20030;-71
2023/02/06 05:27:23;;;;;;;4.03;2.67;;;15.60;48.90;;;;;;5002591;28;20076;-71
2023/02/06 05:29:49;;;;;;;3.53;2.33;;;15.60;48.80;;;;;;5002471;28;20037;-72
2023/02/06 05:32:16;;;;;;;3.75;2.42;;;15.60;48.70;;;;;;5002501;28;20030;-71
2023/02/06 05:34:41;;;;;;;3.58;2.63;;;15.70;48.70;;;;;;5002401;28;20037;-71
2023/02/06 05:37:07;;;;;;;3.75;2.60;;;15.60;48.50;;;;;;5002301;28;20332;-71
2023/02/06 05:39:33;;;;;;;4.25;2.60;;;15.50;48.60;;;;;;5002340;28;20218;-70
2023/02/06 05:41:59;;;;;;;3.15;2.15;;;15.40;48.60;;;;;;5002286;28;20029;-69
2023/02/06 05:44:24;;;;;;;3.17;2.55;;;15.40;49.00;;;;;;5002249;28;20026;-69
2023/02/06 05:46:50;;;;;;;4.45;2.70;;;15.30;49.20;;;;;;5002047;28;20026;-70
2023/02/06 05:49:16;;;;;;;3.47;2.20;;;15.20;49.20;;;;;;5002204;28;20026;-70
2023/02/06 05:51:42;;;;;;;3.75;2.40;;;15.10;49.60;;;;;;5000887;28;20318;-70
2023/02/06 05:54:08;;;;;;;4.20;2.60;;;15.10;49.60;;;;;;5002132;28;20022;-70
2023/02/06 05:56:34;;;;;;;3.25;2.30;;;15.00;49.70;;;;;;5001920;28;20027;-70
2023/02/06 05:58:59;;;;;;;3.83;2.47;;;15.00;49.80;;;;;;5002033;28;20195;-70
2023/02/06 06:01:27;;;;;;;3.55;2.67;;;15.00;49.90;;;;;;5001924;28;20038;-70
2023/02/06 06:03:54;;;;;;;2.75;2.08;;;14.90;50.00;;;;;;5001751;28;20042;-70
2023/02/06 06:06:20;;;;;;;3.47;2.55;;;14.90;49.90;;;;;;5001802;28;20045;-69
2023/02/06 06:08:45;;;;;;;3.33;2.35;;;14.90;50.20;;;;;;5001849;28;20026;-70
2023/02/06 06:11:11;;;;;;;2.55;2.13;;;14.90;50.10;;;;;;5001758;28;20377;-70
2023/02/06 06:13:37;;;;;;;3.00;2.03;;;14.80;50.10;;;;;;5001590;28;20065;-72
2023/02/06 06:16:03;;;;;;;3.33;2.17;;;15.00;50.30;;;;;;5001655;28;20191;-71
2023/02/06 06:18:29;;;;;;;3.38;2.17;;;15.00;50.40;;;;;;5001661;28;20306;-71
2023/02/06 06:20:55;;;;;;;2.42;2.10;;;15.10;50.40;;;;;;5001691;28;20077;-70
2023/02/06 06:23:21;;;;;;;3.20;1.90;;;15.10;50.10;;;;;;5001570;28;20033;-71
2023/02/06 06:25:47;;;;;;;3.08;2.00;;;15.20;49.80;;;;;;5001500;28;20037;-72
2023/02/06 06:28:13;;;;;;;2.90;2.10;;;15.20;49.60;;;;;;5001455;28;20052;-71
2023/02/06 06:30:39;;;;;;;2.45;1.92;;;15.30;49.50;;;;;;5001449;28;20030;-70
2023/02/06 06:33:05;;;;;;;3.38;2.38;;;15.30;49.60;;;;;;5001496;28;20030;-70
2023/02/06 06:35:33;;;;;;;2.75;1.88;;;15.30;49.40;;;;;;5001366;28;20357;-70
2023/02/06 06:37:58;;;;;;;3.58;2.22;;;15.40;49.30;;;;;;5001355;28;20022;-71
2023/02/06 06:40:24;;;;;;;2.83;2.03;;;15.40;49.10;;;;;;5000852;28;20018;-71
2023/02/06 06:42:50;;;;;;;2.15;1.77;;;15.40;49.10;;;;;;5001292;28;20447;-70
2023/02/06 06:45:16;;;;;;;2.45;2.10;;;15.50;48.90;;;;;;5001271;28;20098;-70
2023/02/06 06:47:42;;;;;;;2.35;1.85;;;15.50;48.80;;;;;;5001244;28;20077;-70
2023/02/06 06:50:08;;;;;;;2.97;1.90;;;15.60;48.80;;;;;;5001290;28;20230;-71
2023/02/06 06:52:34;;;;;;;2.90;2.00;;;15.50;48.60;;;;;;5001262;28;20033;-70
2023/02/06 06:55:00;;;;;;;3.00;2.53;;;15.60;48.70;;;;;;5001204;28;20089;-70
2023/02/06 06:57:28;;;;;;;2.67;2.13;;;15.60;48.60;;;;;;5001164;28;20089;-70
2023/02/06 06:59:54;;;;;;;2.47;2.00;;;15.60;48.40;;;;;;5001151;28;20045;-70
2023/02/06 07:02:20;;;;;;;4.30;2.08;;;15.60;48.40;;;;;;5000964;28;20310;-70
2023/02/06 07:04:46;;;;;;;3.33;2.10;;;15.50;48.50;;;;;;5000871;28;20050;-70
2023/02/06 07:07:11;;;;;;;2.25;1.98;;;15.40;48.70;;;;;;5000948;28;20026;-70
2023/02/06 07:09:37;;;;;;;2.95;2.05;;;15.30;48.80;;;;;;5001022;28;20065;-71
2023/02/06 07:12:03;;;;;;;3.00;2.25;;;15.30;49.20;;;;;;5000935;28;20029;-70
2023/02/06 07:14:29;;;;;;;3.53;2.63;;;15.20;49.30;;;;;;5000875;28;20221;-70
2023/02/06 07:16:55;;;;;;;3.88;2.95;;;15.20;49.40;;;;;;5000916;28;20083;-70
2023/02/06 07:19:21;;;;;;;4.18;2.55;;;15.10;49.60;;;;;;5000859;28;20086;-71
2023/02/06 07:21:47;;;;;;;4.85;3.60;;;15.10;49.70;;;;;;5000957;28;20030;-70
2023/02/06 07:24:13;;;;;;;3.55;2.47;;;15.10;49.80;;;;;;5001014;28;20034;-69
2023/02/06 07:26:40;;;;;;;4.07;2.65;;;15.00;49.90;;;;;;5001042;28;20041;-69
2023/02/06 07:29:06;;;;;;;3.13;2.47;;;15.00;50.00;;;;;;5000889;28;20018;-69
2023/02/06 07:31:31;;;;;;;2.97;2.28;;;15.00;50.10;;;;;;5000856;28;20026;-71
2023/02/06 07:33:58;;;;;;;3.17;2.30;;;14.90;50.00;;;;;;5000889;28;20061;-71
2023/02/06 07:36:24;;;;;;;3.35;2.38;;;14.90;50.10;;;;;;5000724;28;20070;-71
2023/02/06 07:38:50;;;;;;;5.15;2.63;;;14.90;50.10;;;;;;5000730;28;20018;-70
2023/02/06 07:41:16;;;;;;;3.45;2.50;;;15.00;50.20;;;;;;5000702;28;20026;-70
2023/02/06 07:43:42;;;;;;;2.83;2.20;;;15.10;50.20;;;;;;5000655;28;20053;-70
2023/02/06 07:46:08;;;;;;;2.85;2.22;;;15.10;50.20;;;;;;5000709;28;20576;-69
2023/02/06 07:48:34;;;;;;;3.20;2.42;;;15.30;49.90;;;;;;5000688;28;20034;-70
2023/02/06 07:51:05;;;;;;;3.20;2.50;;;15.40;49.60;;;;;;5000632;28;20049;-70
2023/02/06 07:53:31;;;;;;;3.80;2.50;;;15.60;49.30;;;;;;5003743;28;20035;-70
2023/02/06 07:55:57;;;;;;;4.50;2.63;;;15.70;49.10;;;;;;5004386;28;20043;-69
2023/02/06 07:58:23;;;;;;;3.65;2.40;;;15.70;48.90;;;;;;5004571;28;20061;-70
2023/02/06 08:00:49;;;;;;;4.05;2.92;;;15.70;49.00;;;;;;5004545;28;20026;-70
2023/02/06 08:03:14;;;;;;;3.58;2.53;;;15.80;49.10;;;;;;5004345;28;20026;-69
2023/02/06 08:05:44;;;;;;;4.22;2.60;;;15.80;49.00;;;;;;5004621;28;20058;-70
2023/02/06 08:08:09;;;;;;;4.00;2.40;;;15.90;48.90;;;;;;5004477;28;20369;-70
2023/02/06 08:10:38;;;;;;;3.08;2.42;;;16.00;48.80;;;;;;5003858;28;20022;-70
2023/02/06 08:13:04;;;;;;;;;;;16.00;48.80;;;;;;5004669;28;20098;-70
2023/02/06 08:15:30;;;;;;;3.25;2.70;;;16.10;48.60;;;;;;5004177;28;19906;-70
2023/02/06 08:17:56;;;;;;;3.35;2.50;;;16.10;48.50;;;;;;5004063;28;20078;-70
2023/02/06 08:20:22;;;;;;;3.38;2.05;;;16.10;48.50;;;;;;5004028;28;20052;-70
2023/02/06 08:22:48;;;;;;;4.50;3.05;;;16.10;48.70;;;;;;5004035;28;20258;-70
2023/02/06 08:25:14;;;;;;;3.33;2.58;;;16.10;48.50;;;;;;5003969;28;20351;-71
2023/02/06 08:27:39;;;;;;;3.38;2.40;;;16.10;49.00;;;;;;5003882;28;20086;-70
2023/02/06 08:30:06;;;;;;;2.67;2.33;;;16.20;48.30;;;;;;5003896;28;20222;-70
2023/02/06 08:32:33;;;;;;;3.63;2.70;;;16.30;48.30;;;;;;5003756;28;20029;-69
2023/02/06 08:35:00;;;;;;;3.53;2.53;;;16.30;48.30;;;;;;5003706;28;20101;-70
2023/02/06 08:37:25;;;;;;;3.50;2.38;;;16.30;48.30;;;;;;5003656;28;20022;-71
2023/02/06 08:39:51;;;;;;;4.20;2.65;;;16.30;48.30;;;;;;5003632;28;20010;-71
2023/02/06 08:42:17;;;;;;;3.53;2.40;;;16.30;48.30;;;;;;5003556;28;20030;-70
2023/02/06 08:44:43;;;;;;;3.80;2.95;;;16.30;48.20;;;;;;5003607;28;20038;-69
2023/02/06 08:47:09;;;;;;;3.22;2.15;;;16.30;48.30;;;;;;5003535;28;20109;-70
2023/02/06 08:49:35;;;;;;;2.80;2.28;;;16.30;48.20;;;;;;5003535;28;20478;-70
2023/02/06 08:52:00;;;;;;;3.70;2.80;;;16.30;48.20;;;;;;5003439;28;20081;-70
2023/02/06 08:54:26;;;;;;;3.97;2.78;;;16.30;48.00;;;;;;5003244;28;20106;-70
2023/02/06 08:56:55;;;;;;;4.22;2.95;;;16.40;48.20;;;;;;5003161;28;20034;-71
2023/02/06 08:59:21;;;;;;;;;;;16.40;48.20;;;;;;5003745;28;20014;-70
2023/02/06 09:01:48;;;;;;;2.72;2.25;;;16.40;48.20;;;;;;5003229;28;19925;-69
2023/02/06 09:04:15;;;;;;;4.10;2.60;;;16.40;48.00;;;;;;5002574;28;20416;-70
2023/02/06 09:06:43;;;;;;;3.60;2.65;;;16.50;48.10;;;;;;5003083;28;20053;-70
2023/02/06 09:09:10;;;;;;;4.23;3.03;;;16.50;48.10;;;;;;5003114;28;20022;-69
2023/02/06 09:11:37;;;;;;;4.93;3.15;;;16.40;48.10;;;;;;5003005;28;20049;-70
2023/02/06 09:14:04;;;;;;;4.45;3.05;;;16.50;48.20;;;;;;5002971;28;20057;-70
2023/02/06 09:16:33;;;;;;;4.03;2.67;;;16.40;48.20;;;;;;5002814;28;20031;-69
2023/02/06 09:19:00;;;;;;;4.63;3.25;;;16.50;48.20;;;;;;5002854;28;20022;-70
2023/02/06 09:21:28;;;;;;;3.47;2.85;;;16.40;48.10;;;;;;5002830;28;20069;-71
2023/02/06 09:23:57;;;;;;;4.78;3.45;;;16.40;48.00;;;;;;5002763;28;20026;-71
2023/02/06 09:26:26;;;;;;;5.78;3.20;;;16.40;48.10;;;;;;5002622;28;20022;-71
2023/02/06 09:28:52;;;;;;;;;;;16.40;48.10;;;;;;5003096;28;20014;-71
2023/02/06 09:31:19;;;;;;;4.38;2.83;;;16.40;48.20;;;;;;5002634;28;19959;-71
2023/02/06 09:33:45;;;;;;;3.75;3.03;;;16.40;48.10;;;;;;5002550;28;20085;-71
2023/02/06 09:36:15;;;;;;;3.97;3.03;;;16.40;48.00;;;;;;5002450;28;20112;-70
2023/02/06 09:38:43;;;;;;;3.13;2.83;;;16.40;48.30;;;;;;5002402;28;20326;-70
2023/02/06 09:41:20;;;;;;;4.63;3.13;;;16.40;48.00;;;;;;5002177;28;20025;-70
2023/02/06 09:43:53;;;;;;;3.70;3.10;;;16.40;48.10;;;;;;5002358;28;20077;-71
2023/02/06 09:46:26;;;;;;;4.80;3.22;;;16.40;48.10;;;;;;5002246;28;20030;-71
2023/02/06 09:48:54;;;;;;;3.65;2.85;;;16.40;48.10;;;;;;5002202;28;20445;-71
2023/02/06 09:51:38;;;;;;;4.55;3.13;;;16.40;48.10;;;;;;5002132;28;20089;-70
2023/02/06 09:54:12;;;;;;;3.80;2.75;;;16.50;48.10;;;;;;5002117;28;20022;-70
2023/02/06 09:56:56;;;;;;;3.80;2.53;;;16.50;48.10;;;;;;5001945;28;20022;-70
2023/02/06 09:59:43;;;;;;;4.63;2.97;;;16.60;48.30;;;;;;5002011;28;20088;-70
2023/02/06 10:02:54;;;;;;;4.80;3.00;;;16.60;48.10;;;;;;5001993;28;20306;-70
2023/02/06 10:05:43;;;;;;;4.05;2.65;;;16.60;48.10;;;;;;5001773;28;20065;-69
2023/02/06 10:08:20;;;;;;;4.05;3.10;;;16.60;48.20;;;;;;5001875;28;20018;-69
2023/02/06 10:10:55;;;;;;;3.25;2.38;;;16.60;48.20;;;;;;5001912;28;20030;-71
2023/02/06 10:13:39;;;;;;;2.95;2.40;;;16.60;48.20;;;;;;5001803;28;20030;-71
2023/02/06 10:16:40;;;;;;;4.75;2.90;;;16.60;48.20;;;;;;5000973;28;20030;-70
2023/02/06 10:19:20;;;;;;;4.38;3.22;;;16.60;48.20;;;;;;4922553;29;20028;-71
2023/02/06 10:22:01;;;;;;;3.90;2.72;;;16.60;48.20;;;;;;4992788;28;20061;-70
2023/02/06 10:24:45;;;;;;;4.53;2.72;;;16.60;48.20;;;;;;5001616;28;20029;-71
2023/02/06 10:27:13;;;;;;;3.30;2.50;;;16.70;48.10;;;;;;5001493;28;20037;-71
2023/02/06 10:29:41;;;;;;;3.33;2.53;;;16.70;48.20;;;;;;5001512;28;20076;-70
2023/02/06 10:32:16;;;;;;;4.38;2.67;;;16.70;48.20;;;;;;5001520;28;20084;-70
2023/02/06 10:35:08;;;;;;;3.83;2.63;;;16.70;48.20;;;;;;5001496;28;20034;-71
2023/02/06 10:38:20;;;;;;;3.65;2.70;;;16.70;48.20;;;;;;5001540;28;20081;-71
2023/02/06 10:41:07;;;;;;;4.30;3.00;;;16.70;48.30;;;;;;4957947;28;20358;-70
2023/02/06 10:43:48;;;;;;;4.50;3.15;;;16.70;48.20;;;;;;5001315;28;20107;-73
2023/02/06 10:46:46;;;;;;;4.13;3.00;;;16.70;48.30;;;;;;5001307;28;20029;-71
2023/02/06 10:49:34;;;;;;;3.45;2.80;;;16.70;48.30;;;;;;4995935;28;20253;-71
2023/02/06 10:52:10;;;;;;;3.55;2.45;;;16.80;48.20;;;;;;5001400;28;20030;-70
2023/02/06 10:54:49;;;;;;;5.90;3.28;;;16.70;48.20;;;;;;5001146;28;20030;-71
2023/02/06 10:57:23;;;;;;;4.18;2.75;;;16.70;48.00;;;;;;5001223;28;20309;-71
2023/02/06 10:59:54;;;;;;;4.22;2.83;;;16.60;48.20;;;;;;5001277;28;20022;-71
2023/02/06 11:02:54;;;;;;;4.13;3.08;;;16.60;48.50;;;;;;5001198;28;20014;-70
2023/02/06 11:05:24;;;;;;;3.35;2.75;;;16.60;48.00;;;;;;4958608;28;20073;-70
2023/02/06 11:08:02;;;;;;;2.88;2.50;;;16.60;48.00;;;;;;5001034;28;20033;-70
2023/02/06 11:10:28;;;;;;;3.92;2.75;;;16.60;47.50;;;;;;5001257;28;20034;-70
2023/02/06 11:13:05;;;;;;;2.92;2.53;;;16.60;47.50;;;;;;5001287;28;20026;-70
2023/02/06 11:15:39;;;;;;;4.28;2.38;;;16.60;48.20;;;;;;5001163;28;20091;-70
2023/02/06 11:18:10;;;;;;;3.38;2.40;;;16.60;48.30;;;;;;5000856;28;20023;-70
2023/02/06 11:20:40;;;;;;;4.38;2.55;;;16.60;49.00;;;;;;5000879;28;20085;-71
2023/02/06 11:23:19;;;;;;;3.80;2.80;;;16.70;48.30;;;;;;5000829;28;20022;-70
2023/02/06 11:26:12;;;;;;;4.10;2.47;;;16.70;48.40;;;;;;5000981;28;20026;-69
2023/02/06 11:28:53;;;;;;;3.05;2.38;;;16.70;47.70;;;;;;5004640;28;20034;-71
2023/02/06 11:31:36;;;;;;;3.10;2.40;;;16.60;48.10;;;;;;5004769;28;20045;-72
2023/02/06 11:34:03;;;;;;;3.55;2.50;;;16.70;48.30;;;;;;5004784;28;20018;-71
2023/02/06 11:36:35;;;;;;;13.90;7.47;;;16.70;48.40;;;;;;5004617;28;20034;-69
2023/02/06 11:39:18;;;;;;;17.02;7.32;;;14.60;34.80;;;;;;5004684;28;20018;-70
2023/02/06 11:41:56;;;;;;;9.80;4.00;;;15.30;42.40;;;;;;4997357;28;20069;-71
2023/02/06 11:44:27;;;;;;;8.60;3.70;;;15.80;47.60;;;;;;5004741;28;20045;-70
2023/02/06 11:46:53;;;;;;;7.97;3.72;;;16.10;48.10;;;;;;5004565;28;20242;-73
2023/02/06 11:49:28;;;;;;;8.73;4.28;;;16.30;47.80;;;;;;5004477;28;20022;-72
2023/02/06 11:51:59;;;;;;;14.20;4.47;;;16.40;47.90;;;;;;5003677;28;20022;-71
2023/02/06 11:54:30;;;;;;;14.82;3.85;;;16.50;47.60;;;;;;5003868;28;20052;-70
2023/02/06 11:57:02;;;;;;;17.60;4.07;;;16.70;47.90;;;;;;5004123;28;20048;-71
2023/02/06 11:59:29;;;;;;;16.55;3.75;;;16.80;47.90;;;;;;5000187;28;20022;-73
2023/02/06 12:01:56;;;;;;;12.63;3.75;;;16.80;47.90;;;;;;5000851;28;20030;-72
2023/02/06 12:04:30;;;;;;;12.07;3.28;;;16.80;47.80;;;;;;5003804;28;20042;-72
2023/02/06 12:07:12;;;;;;;11.32;4.28;;;16.90;47.90;;;;;;5003876;28;20022;-72
2023/02/06 12:09:38;;;;;;;11.60;4.22;;;16.80;47.80;;;;;;5003917;28;20030;-71
2023/02/06 12:12:35;;;;;;;15.80;3.80;;;16.80;48.00;;;;;;5001193;28;20037;-70
2023/02/06 12:15:11;;;;;;;7.43;3.72;;;16.70;48.00;;;;;;4987846;28;20089;-71
2023/02/06 12:17:41;;;;;;;8.55;3.25;;;16.70;48.10;;;;;;5003817;28;20026;-73
2023/02/06 12:20:23;;;;;;;13.43;5.15;;;16.70;48.30;;;;;;5003649;28;20022;-71
2023/02/06 12:23:19;;;;;;;12.15;3.60;;;16.70;48.30;;;;;;5002353;28;20222;-72
2023/02/06 12:25:49;;;;;;;13.25;4.15;;;16.60;48.20;;;;;;5002238;28;20066;-72
2023/02/06 12:28:24;;;;;;;13.88;3.50;;;16.60;47.90;;;;;;5003560;28;20229;-71
2023/02/06 12:31:03;;;;;;;9.82;3.72;;;16.60;48.10;;;;;;5003614;28;20326;-71
2023/02/06 12:33:50;;;;;;;10.02;3.55;;;16.60;47.60;;;;;;5002402;28;20038;-71
2023/02/06 12:36:19;;;;;;;9.85;3.83;;;16.60;48.10;;;;;;5003342;28;20090;-73
2023/02/06 12:39:06;;;;;;;10.32;4.22;;;16.60;47.90;;;;;;5002698;28;20061;-71
2023/02/06 12:41:49;;;;;;;12.38;3.67;;;16.60;47.90;;;;;;5003316;28;20022;-72
2023/02/06 12:44:58;;;;;;;12.43;3.15;;;16.60;48.10;;;;;;4982880;28;20481;-72
2023/02/06 12:47:43;;;;;;;10.73;3.63;;;16.70;48.10;;;;;;4943021;29;20098;-72
2023/02/06 12:50:25;;;;;;;12.73;3.53;;;16.80;48.10;;;;;;4982958;28;20053;-71
2023/02/06 12:53:15;;;;;;;10.93;3.10;;;16.80;48.10;;;;;;4983839;28;20401;-71
2023/02/06 12:55:53;;;;;;;10.85;3.38;;;16.90;48.00;;;;;;4983724;28;20093;-72
2023/02/06 12:58:39;;;;;;;;;;;17.00;47.90;;;;;;4984287;28;20039;-71
2023/02/06 13:01:20;;;;;;;11.85;2.88;;;17.00;47.90;;;;;;4979809;28;19918;-72
2023/02/06 13:03:56;;;;;;;11.38;4.03;;;17.10;47.80;;;;;;4983147;28;20051;-71
2023/02/06 13:06:27;;;;;;;11.73;3.20;;;17.10;48.00;;;;;;4983634;28;20026;-71
2023/02/06 13:09:04;;;;;;;12.27;3.05;;;17.10;47.80;;;;;;4983614;28;20081;-71